createdAt,value
2019-03-10T00:01:42.127Z,5.50
2019-03-10T00:04:09.143Z,5.60
2019-03-10T00:06:36.575Z,5.60
2019-03-10T00:09:04.955Z,5.70
2019-03-10T00:11:34.083Z,5.70
2019-03-10T00:14:01.418Z,5.70
2019-03-10T00:16:28.403Z,5.70
2019-03-10T00:18:55.865Z,5.80
2019-03-10T00:21:22.989Z,5.80
2019-03-10T00:23:50.202Z,5.80
2019-03-10T00:26:17.375Z,5.70
2019-03-10T00:28:44.636Z,5.70
2019-03-10T00:31:11.984Z,5.60
2019-03-10T00:33:39.171Z,5.50
2019-03-10T00:36:06.423Z,5.60
2019-03-10T00:38:58.184Z,5.60
2019-03-10T00:42:02.141Z,5.60
2019-03-10T00:45:15.972Z,5.60
2019-03-10T00:48:17.132Z,5.60
2019-03-10T00:51:14.376Z,5.60
2019-03-10T00:53:41.510Z,5.60
2019-03-10T00:56:08.781Z,5.60
2019-03-10T00:58:36.079Z,5.70
2019-03-10T01:01:03.406Z,5.70
2019-03-10T01:03:30.587Z,5.70
2019-03-10T01:05:58.039Z,5.70
2019-03-10T01:08:25.406Z,5.80
2019-03-10T01:10:52.644Z,5.80
2019-03-10T01:13:20.246Z,5.80
2019-03-10T01:15:48.248Z,5.80
2019-03-10T01:18:16.399Z,5.80
2019-03-10T01:20:45.156Z,5.80
2019-03-10T01:23:12.468Z,5.80
2019-03-10T01:25:39.633Z,5.80
2019-03-10T01:28:07.597Z,5.80
2019-03-10T01:30:46.051Z,5.80
2019-03-10T01:34:13.447Z,5.80
2019-03-10T01:36:40.648Z,5.80
2019-03-10T01:39:09.343Z,5.80
2019-03-10T01:41:36.586Z,5.80
2019-03-10T01:44:03.913Z,5.80
2019-03-10T01:46:31.294Z,5.80
2019-03-10T01:48:58.910Z,5.80
2019-03-10T01:51:26.282Z,5.80
2019-03-10T01:53:53.675Z,5.80
2019-03-10T01:56:20.765Z,5.80
2019-03-10T01:58:47.985Z,5.80
2019-03-10T02:01:15.207Z,5.80
2019-03-10T02:03:42.378Z,5.80
2019-03-10T02:06:09.884Z,5.80
2019-03-10T02:08:37.256Z,5.80
2019-03-10T02:11:04.385Z,5.70
2019-03-10T02:13:31.423Z,5.70
2019-03-10T02:15:58.476Z,5.70
2019-03-10T02:18:25.628Z,5.70
2019-03-10T02:20:52.742Z,5.70
2019-03-10T02:23:20.054Z,5.70
2019-03-10T02:25:47.289Z,5.70
2019-03-10T02:28:14.765Z,5.70
2019-03-10T02:30:42.013Z,5.60
2019-03-10T02:33:09.152Z,5.60
2019-03-10T02:35:36.655Z,5.60
2019-03-10T02:38:04.393Z,5.60
2019-03-10T02:40:31.972Z,5.60
2019-03-10T02:42:59.144Z,5.50
2019-03-10T02:45:26.591Z,5.60
2019-03-10T02:47:53.830Z,5.50
2019-03-10T02:50:21.077Z,5.50
2019-03-10T02:52:48.613Z,5.50
2019-03-10T02:55:15.784Z,5.50
2019-03-10T02:57:43.015Z,5.50
2019-03-10T03:00:10.656Z,5.50
2019-03-10T03:02:37.964Z,5.50
2019-03-10T03:05:06.732Z,5.50
2019-03-10T03:07:33.739Z,5.50
2019-03-10T03:10:01.104Z,5.50
2019-03-10T03:12:28.116Z,5.40
2019-03-10T03:14:55.447Z,5.40
2019-03-10T03:17:22.456Z,5.40
2019-03-10T03:19:49.477Z,5.30
2019-03-10T03:22:17.156Z,5.30
2019-03-10T03:24:44.312Z,5.30
2019-03-10T03:27:11.377Z,5.20
2019-03-10T03:29:39.069Z,5.30
2019-03-10T03:32:06.330Z,5.20
2019-03-10T03:34:33.753Z,5.10
2019-03-10T03:37:00.815Z,5.10
2019-03-10T03:39:39.869Z,5.10
2019-03-10T03:42:07.221Z,5.10
2019-03-10T03:44:34.212Z,5.10
2019-03-10T03:47:02.146Z,5.10
2019-03-10T03:49:29.570Z,5.10
2019-03-10T03:51:56.621Z,5.10
2019-03-10T03:54:23.722Z,5.10
2019-03-10T03:56:50.747Z,5.20
2019-03-10T03:59:17.700Z,5.20
2019-03-10T04:01:48.835Z,5.20
2019-03-10T04:04:16.016Z,5.20
2019-03-10T04:06:43.010Z,5.20
2019-03-10T04:09:10.231Z,5.30
2019-03-10T04:11:37.799Z,5.30
2019-03-10T04:14:04.969Z,5.30
2019-03-10T04:16:32.241Z,5.30
2019-03-10T04:18:59.295Z,5.30
2019-03-10T04:21:26.254Z,5.30
2019-03-10T04:23:53.264Z,5.30
2019-03-10T04:26:20.678Z,5.30
2019-03-10T04:28:47.787Z,5.30
2019-03-10T04:31:15.145Z,5.30
2019-03-10T04:33:43.215Z,5.30
2019-03-10T04:36:10.372Z,5.30
2019-03-10T04:38:37.671Z,5.30
2019-03-10T04:41:04.613Z,5.30
2019-03-10T04:43:31.655Z,5.30
2019-03-10T04:45:59.071Z,5.30
2019-03-10T04:48:26.387Z,5.30
2019-03-10T04:50:53.382Z,5.30
2019-03-10T04:53:20.462Z,5.30
2019-03-10T04:56:07.199Z,5.30
2019-03-10T04:58:37.763Z,5.30
2019-03-10T05:01:05.368Z,5.30
2019-03-10T05:03:32.615Z,5.30
2019-03-10T05:05:59.931Z,5.40
2019-03-10T05:08:27.229Z,5.40
2019-03-10T05:10:54.887Z,5.40
2019-03-10T05:13:21.974Z,5.40
2019-03-10T05:15:48.942Z,5.40
2019-03-10T05:18:15.897Z,5.40
2019-03-10T05:20:42.869Z,5.40
2019-03-10T05:23:33.041Z,5.40
2019-03-10T05:26:00.629Z,5.40
2019-03-10T05:28:28.498Z,5.40
2019-03-10T05:30:55.847Z,5.30
2019-03-10T05:33:23.024Z,5.40
2019-03-10T05:35:50.054Z,5.40
2019-03-10T05:38:17.148Z,5.40
2019-03-10T05:40:44.400Z,5.40
2019-03-10T05:43:11.438Z,5.40
2019-03-10T05:45:38.408Z,5.30
2019-03-10T05:48:05.495Z,5.30
2019-03-10T05:50:32.681Z,5.30
2019-03-10T05:53:00.787Z,5.30
2019-03-10T05:55:28.083Z,5.30
2019-03-10T05:57:55.059Z,5.30
2019-03-10T06:00:22.138Z,5.30
2019-03-10T06:02:49.132Z,5.30
2019-03-10T06:05:16.141Z,5.20
2019-03-10T06:07:43.488Z,5.20
2019-03-10T06:10:11.031Z,5.20
2019-03-10T06:12:38.030Z,5.20
2019-03-10T06:15:05.315Z,5.30
2019-03-10T06:17:32.583Z,5.20
2019-03-10T06:19:59.597Z,5.20
2019-03-10T06:22:26.564Z,5.20
2019-03-10T06:24:53.534Z,5.20
2019-03-10T06:27:20.687Z,5.30
2019-03-10T06:29:47.979Z,5.30
2019-03-10T06:32:14.986Z,5.30
2019-03-10T06:34:42.311Z,5.30
2019-03-10T06:37:09.538Z,5.40
2019-03-10T06:39:36.658Z,5.40
2019-03-10T06:42:03.666Z,5.30
2019-03-10T06:44:30.977Z,5.30
2019-03-10T06:46:58.067Z,5.30
2019-03-10T06:49:25.347Z,5.30
2019-03-10T06:51:52.395Z,5.30
2019-03-10T06:54:19.626Z,5.30
2019-03-10T06:56:46.728Z,5.30
2019-03-10T06:59:14.187Z,5.40
2019-03-10T07:01:41.255Z,5.30
2019-03-10T07:04:08.223Z,5.40
2019-03-10T07:06:35.244Z,5.40
2019-03-10T07:09:04.310Z,5.40
2019-03-10T07:11:32.216Z,5.40
2019-03-10T07:13:59.287Z,5.50
2019-03-10T07:16:26.879Z,5.50
2019-03-10T07:18:53.883Z,5.50
2019-03-10T07:21:21.423Z,5.50
2019-03-10T07:23:48.727Z,5.60
2019-03-10T07:26:16.101Z,5.60
2019-03-10T07:28:48.779Z,5.60
2019-03-10T07:31:24.856Z,5.70
2019-03-10T07:34:26.414Z,5.80
2019-03-10T07:37:11.000Z,5.90
2019-03-10T07:39:46.308Z,6.00
2019-03-10T07:42:22.205Z,6.10
2019-03-10T07:45:08.539Z,6.20
2019-03-10T07:47:55.256Z,6.30
2019-03-10T07:50:28.059Z,6.30
2019-03-10T07:53:14.399Z,6.30
2019-03-10T07:55:51.444Z,6.20
2019-03-10T07:58:27.182Z,6.20
2019-03-10T08:01:17.046Z,6.30
2019-03-10T08:04:19.108Z,6.40
2019-03-10T08:07:04.702Z,6.40
2019-03-10T08:09:37.894Z,6.50
2019-03-10T08:12:39.539Z,6.50
2019-03-10T08:15:38.607Z,6.60
2019-03-10T08:18:17.511Z,6.60
2019-03-10T08:21:03.178Z,6.60
2019-03-10T08:23:37.002Z,6.70
2019-03-10T08:26:19.286Z,6.70
2019-03-10T08:29:18.990Z,6.60
2019-03-10T08:31:51.584Z,6.60
2019-03-10T08:34:44.967Z,6.60
2019-03-10T08:37:35.762Z,6.60
2019-03-10T08:40:15.960Z,6.60
2019-03-10T08:43:00.783Z,6.60
2019-03-10T08:46:00.023Z,6.60
2019-03-10T08:48:33.223Z,6.70
2019-03-10T08:51:28.636Z,6.80
2019-03-10T08:54:09.914Z,6.90
2019-03-10T08:56:45.033Z,6.90
2019-03-10T08:59:24.826Z,7.00
2019-03-10T09:02:12.799Z,7.00
2019-03-10T09:04:45.823Z,7.00
2019-03-10T09:07:27.716Z,7.10
2019-03-10T09:10:09.800Z,7.10
2019-03-10T09:12:59.404Z,7.10
2019-03-10T09:15:52.431Z,7.20
2019-03-10T09:18:31.471Z,7.30
2019-03-10T09:21:33.578Z,7.20
2019-03-10T09:24:14.505Z,7.30
2019-03-10T09:27:01.159Z,7.30
2019-03-10T09:29:46.395Z,7.40
2019-03-10T09:32:31.195Z,7.50
2019-03-10T09:35:03.588Z,7.60
2019-03-10T09:37:41.712Z,7.60
2019-03-10T09:40:37.056Z,7.70
2019-03-10T09:43:13.741Z,7.80
2019-03-10T09:45:55.519Z,7.80
2019-03-10T09:48:48.039Z,7.90
2019-03-10T09:51:30.734Z,7.80
2019-03-10T09:54:15.937Z,7.90
2019-03-10T09:56:55.079Z,7.80
2019-03-10T09:59:28.463Z,7.90
2019-03-10T10:02:20.838Z,7.90
2019-03-10T10:05:19.653Z,8.00
2019-03-10T10:08:00.882Z,8.20
2019-03-10T10:10:36.425Z,8.10
2019-03-10T10:13:19.359Z,8.20
2019-03-10T10:16:00.134Z,8.30
2019-03-10T10:18:37.354Z,8.30
2019-03-10T10:21:24.118Z,8.60
2019-03-10T10:24:01.604Z,8.80
2019-03-10T10:26:43.438Z,8.90
2019-03-10T10:29:16.708Z,8.90
2019-03-10T10:32:03.627Z,8.80
2019-03-10T10:34:52.886Z,8.60
2019-03-10T10:37:35.662Z,8.60
2019-03-10T10:40:42.082Z,8.60
2019-03-10T10:43:22.621Z,8.60
2019-03-10T10:46:01.370Z,8.60
2019-03-10T10:48:34.747Z,8.60
2019-03-10T10:51:20.046Z,8.80
2019-03-10T10:54:02.341Z,8.80
2019-03-10T10:56:43.849Z,8.90
2019-03-10T10:59:26.640Z,8.80
2019-03-10T11:02:12.234Z,8.80
2019-03-10T11:04:57.399Z,8.80
2019-03-10T11:07:38.998Z,8.70
2019-03-10T11:10:32.365Z,8.80
2019-03-10T11:13:17.968Z,8.90
2019-03-10T11:16:17.502Z,9.10
2019-03-10T11:19:00.925Z,9.10
2019-03-10T11:21:58.106Z,9.20
2019-03-10T11:24:33.087Z,9.30
2019-03-10T11:27:08.571Z,9.50
2019-03-10T11:29:44.363Z,9.60
2019-03-10T11:32:22.210Z,9.60
2019-03-10T11:34:59.209Z,9.80
2019-03-10T11:37:32.319Z,9.90
2019-03-10T11:40:05.871Z,9.80
2019-03-10T11:42:43.331Z,9.60
2019-03-10T11:45:25.434Z,9.70
2019-03-10T11:48:20.995Z,9.70
2019-03-10T11:51:06.461Z,9.70
2019-03-10T11:53:53.090Z,9.60
2019-03-10T11:56:51.765Z,9.70
2019-03-10T11:59:24.910Z,9.60
2019-03-10T12:02:16.243Z,9.70
2019-03-10T12:05:00.508Z,9.90
2019-03-10T12:07:36.539Z,10.00
2019-03-10T12:10:04.591Z,9.80
2019-03-10T12:12:31.556Z,9.80
2019-03-10T12:14:58.555Z,9.60
2019-03-10T12:17:25.922Z,9.50
2019-03-10T12:19:53.236Z,9.40
2019-03-10T12:22:20.575Z,9.20
2019-03-10T12:24:47.595Z,9.20
2019-03-10T12:27:14.579Z,9.20
2019-03-10T12:29:41.633Z,9.10
2019-03-10T12:32:08.687Z,9.10
2019-03-10T12:34:36.205Z,8.90
2019-03-10T12:37:03.187Z,8.80
2019-03-10T12:39:30.597Z,8.90
2019-03-10T12:41:58.928Z,8.90
2019-03-10T12:44:26.147Z,8.90
2019-03-10T12:46:53.258Z,8.80
2019-03-10T12:49:20.335Z,8.80
2019-03-10T12:51:47.823Z,8.80
2019-03-10T12:54:16.562Z,8.80
2019-03-10T12:56:43.629Z,8.70
2019-03-10T12:59:10.730Z,8.60
2019-03-10T13:01:38.488Z,8.50
2019-03-10T13:04:05.747Z,8.50
2019-03-10T13:06:32.853Z,8.60
2019-03-10T13:09:00.206Z,8.60
2019-03-10T13:11:27.163Z,8.70
2019-03-10T13:13:54.443Z,8.70
2019-03-10T13:16:21.670Z,8.70
2019-03-10T13:18:48.715Z,8.60
2019-03-10T13:21:15.798Z,8.50
2019-03-10T13:23:42.958Z,8.40
2019-03-10T13:26:10.151Z,8.40
2019-03-10T13:28:38.031Z,8.50
2019-03-10T13:31:05.296Z,8.50
2019-03-10T13:33:32.435Z,8.50
2019-03-10T13:35:59.907Z,8.50
2019-03-10T13:38:26.928Z,8.50
2019-03-10T13:40:53.991Z,8.50
2019-03-10T13:43:20.969Z,8.50
2019-03-10T13:45:48.346Z,8.40
2019-03-10T13:48:15.678Z,8.40
2019-03-10T13:50:42.741Z,8.30
2019-03-10T13:53:09.815Z,8.10
2019-03-10T13:55:36.839Z,7.90
2019-03-10T13:58:03.949Z,7.90
2019-03-10T14:00:31.336Z,7.70
2019-03-10T14:02:58.460Z,7.40
2019-03-10T14:05:25.483Z,7.10
2019-03-10T14:07:52.805Z,6.90
2019-03-10T14:10:20.635Z,6.70
2019-03-10T14:12:47.989Z,6.30
2019-03-10T14:15:15.254Z,6.20
2019-03-10T14:17:42.358Z,6.10
2019-03-10T14:20:09.859Z,6.40
2019-03-10T14:22:37.362Z,6.60
2019-03-10T14:25:04.575Z,6.60
2019-03-10T14:27:31.667Z,6.80
2019-03-10T14:29:58.667Z,6.60
2019-03-10T14:32:25.994Z,6.60
2019-03-10T14:34:53.359Z,6.60
2019-03-10T14:37:21.380Z,6.70
2019-03-10T14:39:48.632Z,6.50
2019-03-10T14:42:15.646Z,6.20
2019-03-10T14:44:42.654Z,5.90
2019-03-10T14:47:10.159Z,5.80
2019-03-10T14:49:37.273Z,5.70
2019-03-10T14:52:04.426Z,5.60
2019-03-10T14:54:31.587Z,5.60
2019-03-10T14:56:58.678Z,5.60
2019-03-10T14:59:25.712Z,5.50
2019-03-10T15:01:53.821Z,5.40
2019-03-10T15:04:21.155Z,5.40
2019-03-10T15:06:48.190Z,5.30
2019-03-10T15:09:15.218Z,5.40
2019-03-10T15:11:42.562Z,5.20
2019-03-10T15:14:09.659Z,5.20
2019-03-10T15:16:36.788Z,5.10
2019-03-10T15:19:03.895Z,5.00
2019-03-10T15:21:31.936Z,5.00
2019-03-10T15:23:59.003Z,4.90
2019-03-10T15:26:26.263Z,4.90
2019-03-10T15:28:53.921Z,5.00
2019-03-10T15:31:20.975Z,5.00
2019-03-10T15:33:47.976Z,5.00
2019-03-10T15:36:20.449Z,5.00
2019-03-10T15:38:45.043Z,5.00
2019-03-10T15:41:12.502Z,5.00
2019-03-10T15:43:39.938Z,5.00
2019-03-10T15:46:07.570Z,5.00
2019-03-10T15:48:34.620Z,5.00
2019-03-10T15:51:01.616Z,4.80
2019-03-10T15:53:29.078Z,4.90
2019-03-10T15:55:56.067Z,4.80
2019-03-10T15:58:23.099Z,4.80
2019-03-10T16:00:50.457Z,4.90
2019-03-10T16:03:17.555Z,5.00
2019-03-10T16:05:44.675Z,4.90
2019-03-10T16:08:12.887Z,5.00
2019-03-10T16:10:40.148Z,5.10
2019-03-10T16:13:07.248Z,5.20
2019-03-10T16:15:34.526Z,5.20
2019-03-10T16:18:01.726Z,5.20
2019-03-10T16:20:29.033Z,5.10
2019-03-10T16:22:56.557Z,5.20
2019-03-10T16:25:23.984Z,5.30
2019-03-10T16:27:50.974Z,5.40
2019-03-10T16:30:18.137Z,5.40
2019-03-10T16:32:45.450Z,5.30
2019-03-10T16:35:13.784Z,5.20
2019-03-10T16:37:41.110Z,5.30
2019-03-10T16:40:10.215Z,5.20
2019-03-10T16:42:37.448Z,5.10
2019-03-10T16:45:06.155Z,5.00
2019-03-10T16:47:33.470Z,4.90
2019-03-10T16:50:00.814Z,4.80
2019-03-10T16:52:27.931Z,4.80
2019-03-10T16:54:54.992Z,4.80
2019-03-10T16:57:22.152Z,4.90
2019-03-10T16:59:49.687Z,4.80
2019-03-10T17:02:17.347Z,4.90
2019-03-10T17:04:44.408Z,4.90
2019-03-10T17:07:11.552Z,4.80
2019-03-10T17:09:38.692Z,4.80
2019-03-10T17:12:05.896Z,4.80
2019-03-10T17:14:32.924Z,4.80
2019-03-10T17:16:59.982Z,4.70
2019-03-10T17:19:26.995Z,4.70
2019-03-10T17:21:54.247Z,4.70
2019-03-10T17:24:24.208Z,4.70
2019-03-10T17:26:51.300Z,4.70
2019-03-10T17:29:18.435Z,4.70
2019-03-10T17:31:45.761Z,4.70
2019-03-10T17:34:15.892Z,4.80
2019-03-10T17:36:42.986Z,4.80
2019-03-10T17:39:10.365Z,4.80
2019-03-10T17:41:38.046Z,4.70
2019-03-10T17:44:05.294Z,4.80
2019-03-10T17:46:33.035Z,4.70
2019-03-10T17:49:00.042Z,4.70
2019-03-10T17:51:27.855Z,4.80
2019-03-10T17:53:55.291Z,4.80
2019-03-10T17:56:22.383Z,4.80
2019-03-10T17:58:49.661Z,4.80
2019-03-10T18:01:17.128Z,4.80
2019-03-10T18:03:46.907Z,4.90
2019-03-10T18:06:14.079Z,4.90
2019-03-10T18:08:41.512Z,5.00
2019-03-10T18:11:08.552Z,5.00
2019-03-10T18:13:35.541Z,5.10
2019-03-10T18:16:02.691Z,5.10
2019-03-10T18:18:30.291Z,5.10
2019-03-10T18:20:57.322Z,5.00
2019-03-10T18:23:24.683Z,5.20
2019-03-10T18:25:51.747Z,5.10
2019-03-10T18:28:18.758Z,5.10
2019-03-10T18:30:46.131Z,5.10
2019-03-10T18:33:13.119Z,5.10
2019-03-10T18:35:40.123Z,5.10
2019-03-10T18:38:07.199Z,5.10
2019-03-10T18:40:34.449Z,5.10
2019-03-10T18:43:01.443Z,5.20
2019-03-10T18:45:29.190Z,5.10
2019-03-10T18:47:57.707Z,5.10
2019-03-10T18:50:25.288Z,5.10
2019-03-10T18:52:52.380Z,5.10
2019-03-10T18:55:19.476Z,5.10
2019-03-10T18:57:46.475Z,5.10
2019-03-10T19:00:15.915Z,5.10
2019-03-10T19:02:42.929Z,5.10
2019-03-10T19:05:11.040Z,5.20
2019-03-10T19:07:38.215Z,5.10
2019-03-10T19:10:06.394Z,5.10
2019-03-10T19:12:33.509Z,5.00
2019-03-10T19:15:00.616Z,5.00
2019-03-10T19:17:27.736Z,5.00
2019-03-10T19:19:55.184Z,5.00
2019-03-10T19:22:22.584Z,5.00
2019-03-10T19:24:49.655Z,5.00
2019-03-10T19:27:16.731Z,5.00
2019-03-10T19:29:43.778Z,5.20
2019-03-10T19:32:10.887Z,5.10
2019-03-10T19:34:38.563Z,5.10
2019-03-10T19:37:05.568Z,5.10
2019-03-10T19:39:32.594Z,5.10
2019-03-10T19:41:59.644Z,5.10
2019-03-10T19:44:27.281Z,5.10
2019-03-10T19:46:54.398Z,5.10
2019-03-10T19:49:21.921Z,5.10
2019-03-10T19:51:49.128Z,5.10
2019-03-10T19:54:16.308Z,5.00
2019-03-10T19:56:43.426Z,5.00
2019-03-10T19:59:11.796Z,5.10
2019-03-10T20:01:38.923Z,5.10
2019-03-10T20:04:05.943Z,5.10
2019-03-10T20:06:33.081Z,5.10
2019-03-10T20:09:01.363Z,5.20
2019-03-10T20:11:30.705Z,5.20
2019-03-10T20:13:58.162Z,5.10
2019-03-10T20:16:26.332Z,5.20
2019-03-10T20:18:53.744Z,5.20
2019-03-10T20:21:21.072Z,5.20
2019-03-10T20:23:48.285Z,5.10
2019-03-10T20:26:15.443Z,5.00
2019-03-10T20:28:43.064Z,5.00
2019-03-10T20:31:10.056Z,4.90
2019-03-10T20:33:37.395Z,4.90
2019-03-10T20:36:04.424Z,4.90
2019-03-10T20:38:31.582Z,4.90
2019-03-10T20:40:58.731Z,4.90
2019-03-10T20:43:25.773Z,4.80
2019-03-10T20:45:52.867Z,4.80
2019-03-10T20:48:20.697Z,4.80
2019-03-10T20:50:47.831Z,4.80
2019-03-10T20:53:15.099Z,4.80
2019-03-10T20:55:42.559Z,4.70
2019-03-10T20:58:09.522Z,4.80
2019-03-10T21:00:36.608Z,4.80
2019-03-10T21:03:03.910Z,4.80
2019-03-10T21:05:30.911Z,4.70
2019-03-10T21:07:57.964Z,4.70
2019-03-10T21:10:25.415Z,4.70
2019-03-10T21:12:52.429Z,4.70
2019-03-10T21:15:19.655Z,4.70
2019-03-10T21:17:47.238Z,4.70
2019-03-10T21:20:16.217Z,4.60
2019-03-10T21:22:43.392Z,4.50
2019-03-10T21:25:14.118Z,4.40
2019-03-10T21:27:41.657Z,4.30
2019-03-10T21:30:13.038Z,4.20
2019-03-10T21:32:40.138Z,4.20
2019-03-10T21:35:17.056Z,4.10
2019-03-10T21:37:37.862Z,4.10
2019-03-10T21:40:05.896Z,4.10
2019-03-10T21:42:33.949Z,4.10
2019-03-10T21:45:01.244Z,4.10
2019-03-10T21:47:29.775Z,4.00
2019-03-10T21:49:57.239Z,4.10
2019-03-10T21:52:24.234Z,4.10
2019-03-10T21:54:51.466Z,4.10
2019-03-10T21:57:18.858Z,4.10
2019-03-10T21:59:46.129Z,4.10
2019-03-10T22:02:13.103Z,4.10
2019-03-10T22:04:40.104Z,4.10
2019-03-10T22:07:07.215Z,4.10
2019-03-10T22:09:34.689Z,4.10
2019-03-10T22:12:01.766Z,4.10
2019-03-10T22:14:28.936Z,4.10
2019-03-10T22:16:56.035Z,4.10
2019-03-10T22:19:23.202Z,4.10
2019-03-10T22:21:50.338Z,4.10
2019-03-10T22:24:18.624Z,4.10
2019-03-10T22:26:45.626Z,4.10
2019-03-10T22:29:12.607Z,4.10
2019-03-10T22:31:39.658Z,4.10
2019-03-10T22:34:07.039Z,4.10
2019-03-10T22:36:34.223Z,4.10
2019-03-10T22:39:01.191Z,4.10
2019-03-10T22:41:28.784Z,4.10
2019-03-10T22:43:55.793Z,4.10
2019-03-10T22:46:22.905Z,4.10
2019-03-10T22:48:50.331Z,4.10
2019-03-10T22:51:17.952Z,4.20
2019-03-10T22:53:44.975Z,4.20
2019-03-10T22:56:12.420Z,4.00
2019-03-10T22:58:39.448Z,3.90
2019-03-10T23:01:07.014Z,3.90
2019-03-10T23:03:34.375Z,3.90
2019-03-10T23:06:01.356Z,3.90
2019-03-10T23:08:28.597Z,3.80
2019-03-10T23:10:55.711Z,3.90
2019-03-10T23:13:22.695Z,3.90
2019-03-10T23:15:49.711Z,3.90
2019-03-10T23:18:16.710Z,3.90
2019-03-10T23:20:44.017Z,3.80
2019-03-10T23:23:11.085Z,3.90
2019-03-10T23:25:38.724Z,3.90
2019-03-10T23:28:05.678Z,3.90
2019-03-10T23:30:34.502Z,3.90
2019-03-10T23:33:01.600Z,3.90
2019-03-10T23:35:29.011Z,3.80
2019-03-10T23:37:56.099Z,3.90
2019-03-10T23:40:23.083Z,3.80
2019-03-10T23:42:50.083Z,3.90
2019-03-10T23:45:17.475Z,3.80
2019-03-10T23:47:44.918Z,3.80
2019-03-10T23:50:12.442Z,3.80
2019-03-10T23:52:39.598Z,3.70
2019-03-10T23:55:07.294Z,3.60
2019-03-10T23:57:35.595Z,3.50
